createdAt,value
2022-11-29T00:00:38.285Z,131.07
2022-11-29T00:03:04.754Z,126.97
2022-11-29T00:05:34.138Z,137.57
2022-11-29T00:08:00.580Z,115.88
2022-11-29T00:10:26.964Z,140.43
2022-11-29T00:12:53.320Z,126.20
2022-11-29T00:15:19.697Z,149.18
2022-11-29T00:17:46.132Z,153.98
2022-11-29T00:20:12.780Z,154.15
2022-11-29T00:22:39.284Z,164.02
2022-11-29T00:25:06.430Z,172.93
2022-11-29T00:27:33.011Z,192.38
2022-11-29T00:29:59.406Z,186.05
2022-11-29T00:32:25.808Z,191.07
2022-11-29T00:34:52.411Z,177.38
2022-11-29T00:37:18.850Z,215.45
2022-11-29T00:39:45.231Z,194.48
2022-11-29T00:42:11.652Z,201.93
2022-11-29T00:44:38.070Z,207.32
2022-11-29T00:47:04.486Z,199.93
2022-11-29T00:49:30.874Z,221.27
2022-11-29T00:51:57.289Z,219.93
2022-11-29T00:54:23.659Z,216.75
2022-11-29T00:56:50.024Z,236.00
2022-11-29T00:59:16.494Z,244.80
2022-11-29T01:01:42.971Z,218.40
2022-11-29T01:04:09.504Z,231.90
2022-11-29T01:06:36.162Z,230.77
2022-11-29T01:09:02.656Z,226.65
2022-11-29T01:11:29.111Z,219.82
2022-11-29T01:13:58.008Z,225.05
2022-11-29T01:16:25.543Z,229.02
2022-11-29T01:18:51.976Z,244.05
2022-11-29T01:21:20.850Z,256.02
2022-11-29T01:23:48.864Z,241.60
2022-11-29T01:26:22.045Z,239.63
2022-11-29T01:28:50.152Z,231.57
2022-11-29T01:31:23.181Z,267.00
2022-11-29T01:33:53.830Z,221.45
2022-11-29T01:36:20.406Z,263.65
2022-11-29T01:38:46.816Z,213.23
2022-11-29T01:41:16.044Z,236.95
2022-11-29T01:44:11.768Z,255.88
2022-11-29T01:46:46.147Z,230.05
2022-11-29T01:49:15.889Z,232.90
2022-11-29T01:51:48.873Z,228.32
2022-11-29T01:54:15.404Z,259.20
2022-11-29T01:56:42.488Z,248.50
2022-11-29T01:59:12.106Z,249.20
2022-11-29T02:01:38.980Z,252.35
2022-11-29T02:04:06.198Z,268.05
2022-11-29T02:06:33.213Z,235.20
2022-11-29T02:08:59.616Z,249.43
2022-11-29T02:12:04.475Z,217.48
2022-11-29T02:14:44.709Z,240.25
2022-11-29T02:17:35.637Z,209.00
2022-11-29T02:20:36.610Z,241.15
2022-11-29T02:23:24.341Z,222.52
2022-11-29T02:26:28.422Z,225.70
2022-11-29T02:29:19.709Z,222.70
2022-11-29T02:31:58.185Z,208.57
2022-11-29T02:34:46.137Z,220.27
2022-11-29T02:37:35.686Z,231.02
2022-11-29T02:40:29.584Z,217.90
2022-11-29T02:43:21.157Z,216.93
2022-11-29T02:45:58.731Z,197.57
2022-11-29T02:48:39.561Z,209.75
2022-11-29T02:51:14.684Z,211.30
2022-11-29T02:53:50.642Z,246.68
2022-11-29T02:56:23.097Z,218.80
2022-11-29T02:59:11.166Z,216.45
2022-11-29T03:01:56.022Z,200.52
2022-11-29T03:04:37.124Z,191.40
2022-11-29T03:09:43.678Z,181.00
2022-11-29T03:12:26.174Z,164.90
2022-11-29T03:15:07.921Z,194.02
2022-11-29T03:17:46.927Z,178.77
2022-11-29T03:20:38.234Z,195.18
2022-11-29T03:23:23.469Z,176.05
2022-11-29T03:26:21.409Z,186.52
2022-11-29T03:29:07.730Z,177.13
2022-11-29T03:31:37.423Z,192.55
2022-11-29T03:34:29.596Z,198.93
2022-11-29T03:37:16.440Z,196.88
2022-11-29T03:39:57.518Z,190.80
2022-11-29T03:45:10.728Z,172.38
2022-11-29T03:47:45.452Z,192.02
2022-11-29T03:50:18.474Z,198.15
2022-11-29T03:53:09.264Z,180.43
2022-11-29T03:55:54.654Z,190.13
2022-11-29T03:58:34.680Z,161.50
2022-11-29T04:01:26.054Z,173.50
2022-11-29T04:04:11.277Z,167.65
2022-11-29T04:06:59.078Z,190.63
2022-11-29T04:09:53.064Z,180.50
2022-11-29T04:12:22.478Z,158.18
2022-11-29T04:15:11.588Z,181.55
2022-11-29T04:18:10.240Z,151.00
2022-11-29T04:20:40.369Z,191.65
2022-11-29T04:23:27.815Z,166.43
2022-11-29T04:26:12.527Z,159.25
2022-11-29T04:29:16.688Z,138.40
2022-11-29T04:32:25.089Z,150.38
2022-11-29T04:35:15.849Z,168.90
2022-11-29T04:38:05.779Z,144.68
2022-11-29T04:40:38.191Z,149.80
2022-11-29T04:43:42.248Z,167.48
2022-11-29T04:46:38.506Z,143.07
2022-11-29T04:49:29.110Z,148.10
2022-11-29T04:52:10.736Z,184.25
2022-11-29T04:54:59.374Z,258.73
2022-11-29T04:58:00.277Z,285.27
2022-11-29T05:00:28.069Z,162.65
2022-11-29T05:03:04.701Z,373.13
2022-11-29T05:05:44.151Z,300.60
2022-11-29T05:08:43.484Z,206.80
2022-11-29T05:11:24.988Z,460.02
2022-11-29T05:13:59.091Z,427.67
2022-11-29T05:16:33.195Z,144.93
2022-11-29T05:19:30.825Z,203.18
2022-11-29T05:22:23.838Z,309.35
2022-11-29T05:25:17.841Z,290.90
2022-11-29T05:27:52.765Z,372.75
2022-11-29T05:30:24.198Z,299.25
2022-11-29T05:33:15.107Z,302.00
2022-11-29T05:35:47.607Z,165.05
2022-11-29T05:38:32.562Z,353.65
2022-11-29T05:40:58.960Z,224.18
2022-11-29T05:43:54.717Z,314.90
2022-11-29T05:46:50.973Z,251.65
2022-11-29T05:49:55.213Z,188.35
2022-11-29T05:52:41.951Z,254.70
2022-11-29T05:55:14.349Z,179.60
2022-11-29T05:57:53.751Z,244.45
2022-11-29T06:00:20.457Z,189.55
2022-11-29T06:02:52.873Z,362.27
2022-11-29T06:05:47.839Z,256.42
2022-11-29T06:08:20.284Z,216.65
2022-11-29T06:10:57.871Z,201.27
2022-11-29T06:13:47.056Z,286.23
2022-11-29T06:16:35.547Z,244.38
2022-11-29T06:19:08.070Z,180.23
2022-11-29T06:21:40.284Z,189.27
2022-11-29T06:24:19.432Z,200.75
2022-11-29T06:26:54.604Z,165.05
2022-11-29T06:29:26.047Z,206.65
2022-11-29T06:32:08.273Z,151.20
2022-11-29T06:34:47.261Z,190.93
2022-11-29T06:37:21.762Z,187.05
2022-11-29T06:39:48.467Z,204.98
2022-11-29T06:42:14.861Z,201.20
2022-11-29T06:44:42.755Z,222.45
2022-11-29T06:47:23.662Z,237.40
2022-11-29T06:50:10.443Z,216.95
2022-11-29T06:52:47.166Z,251.82
2022-11-29T06:55:55.441Z,177.70
2022-11-29T06:58:36.055Z,190.20
2022-11-29T07:01:32.188Z,213.85
2022-11-29T07:04:03.104Z,187.55
2022-11-29T07:06:29.803Z,186.38
2022-11-29T07:09:00.135Z,207.27
2022-11-29T07:11:27.675Z,182.07
2022-11-29T07:13:54.578Z,150.90
2022-11-29T07:16:28.978Z,154.40
2022-11-29T07:19:07.515Z,177.82
2022-11-29T07:22:15.420Z,187.70
2022-11-29T07:25:02.239Z,191.90
2022-11-29T07:27:43.083Z,180.80
2022-11-29T07:30:33.945Z,195.27
2022-11-29T07:33:27.901Z,156.55
2022-11-29T07:36:11.156Z,164.30
2022-11-29T07:38:52.830Z,151.30
2022-11-29T07:41:48.988Z,160.40
2022-11-29T07:44:33.667Z,167.57
2022-11-29T07:47:00.157Z,178.50
2022-11-29T07:49:26.670Z,160.35
2022-11-29T07:51:54.405Z,182.55
2022-11-29T07:54:22.161Z,200.52
2022-11-29T07:56:48.669Z,186.75
2022-11-29T07:59:15.171Z,162.10
2022-11-29T08:01:42.185Z,171.60
2022-11-29T08:04:09.295Z,165.25
2022-11-29T08:06:36.336Z,180.25
2022-11-29T08:09:03.381Z,157.60
2022-11-29T08:11:29.763Z,120.38
2022-11-29T08:14:00.531Z,161.75
2022-11-29T08:16:27.103Z,131.45
2022-11-29T08:18:53.556Z,134.85
2022-11-29T08:21:20.247Z,140.43
2022-11-29T08:23:50.458Z,135.32
2022-11-29T08:26:18.191Z,135.57
2022-11-29T08:28:44.993Z,106.78
2022-11-29T08:31:12.910Z,124.30
2022-11-29T08:33:41.151Z,136.35
2022-11-29T08:36:08.220Z,114.25
2022-11-29T08:38:34.737Z,119.60
2022-11-29T08:41:02.680Z,112.30
2022-11-29T08:43:30.058Z,134.43
2022-11-29T08:45:57.330Z,114.78
2022-11-29T08:48:24.066Z,119.05
2022-11-29T08:50:52.255Z,123.03
2022-11-29T08:53:37.751Z,118.63
2022-11-29T08:56:23.561Z,126.93
2022-11-29T08:58:50.799Z,129.10
2022-11-29T09:01:18.592Z,129.38
2022-11-29T09:04:05.181Z,131.73
2022-11-29T09:06:33.506Z,139.30
2022-11-29T09:09:00.961Z,124.18
2022-11-29T09:11:28.938Z,168.05
2022-11-29T09:13:58.536Z,156.57
2022-11-29T09:16:27.076Z,148.80
2022-11-29T09:18:55.758Z,151.55
2022-11-29T09:21:24.607Z,149.27
2022-11-29T09:23:59.081Z,124.93
2022-11-29T09:26:27.678Z,176.02
2022-11-29T09:28:54.237Z,166.98
2022-11-29T09:31:21.396Z,150.02
2022-11-29T09:33:49.038Z,140.25
2022-11-29T09:36:15.625Z,155.93
2022-11-29T09:38:42.035Z,149.60
2022-11-29T09:41:21.485Z,156.82
2022-11-29T09:44:20.933Z,164.00
2022-11-29T09:47:00.514Z,162.38
2022-11-29T09:49:48.957Z,174.73
2022-11-29T09:53:06.773Z,180.82
2022-11-29T09:55:45.455Z,153.77
2022-11-29T09:58:15.368Z,160.20
2022-11-29T10:00:48.524Z,159.57
2022-11-29T10:03:23.256Z,152.57
2022-11-29T10:05:54.205Z,169.13
2022-11-29T10:08:33.937Z,167.30
2022-11-29T10:11:23.360Z,155.80
2022-11-29T10:13:53.853Z,165.38
2022-11-29T10:16:32.635Z,170.13
2022-11-29T10:19:05.107Z,180.85
2022-11-29T10:21:36.739Z,173.32
2022-11-29T10:24:17.958Z,182.82
2022-11-29T10:26:44.476Z,188.27
2022-11-29T10:29:15.557Z,190.20
2022-11-29T10:34:24.999Z,186.95
2022-11-29T10:37:01.336Z,188.43
2022-11-29T10:39:51.130Z,166.88
2022-11-29T10:42:41.297Z,184.57
2022-11-29T10:45:19.138Z,201.52
2022-11-29T10:47:47.032Z,181.27
2022-11-29T10:50:17.751Z,161.90
2022-11-29T10:52:44.256Z,173.93
2022-11-29T10:55:14.023Z,162.95
2022-11-29T10:58:12.065Z,168.35
2022-11-29T11:01:08.324Z,173.82
2022-11-29T11:03:53.542Z,148.20
2022-11-29T11:06:24.326Z,173.27
2022-11-29T11:09:20.493Z,156.43
2022-11-29T11:11:55.503Z,161.23
2022-11-29T11:14:31.000Z,175.10
2022-11-29T11:17:15.186Z,171.45
2022-11-29T11:19:42.093Z,180.98
2022-11-29T11:22:20.860Z,185.05
2022-11-29T11:24:48.904Z,173.15
2022-11-29T11:27:28.879Z,179.80
2022-11-29T11:29:55.316Z,172.73
2022-11-29T11:32:21.763Z,170.70
2022-11-29T11:34:56.485Z,161.55
2022-11-29T11:37:28.374Z,181.13
2022-11-29T11:40:00.602Z,158.52
2022-11-29T11:42:37.661Z,148.73
2022-11-29T11:45:13.116Z,163.57
2022-11-29T11:47:46.454Z,180.88
2022-11-29T11:50:16.430Z,161.30
2022-11-29T11:52:58.229Z,175.35
2022-11-29T11:55:29.643Z,166.93
2022-11-29T11:58:09.832Z,178.75
2022-11-29T12:03:56.751Z,190.95
2022-11-29T12:06:37.375Z,198.48
2022-11-29T12:09:38.735Z,198.00
2022-11-29T12:12:23.956Z,216.98
2022-11-29T12:15:07.613Z,211.00
2022-11-29T12:17:41.938Z,208.93
2022-11-29T12:20:40.718Z,220.55
2022-11-29T12:23:45.260Z,186.48
2022-11-29T12:26:55.322Z,198.88
2022-11-29T12:29:17.515Z,185.82
2022-11-29T12:31:46.575Z,152.73
2022-11-29T12:34:50.713Z,195.25
2022-11-29T12:37:22.227Z,177.55
2022-11-29T12:40:02.701Z,182.10
2022-11-29T12:42:39.936Z,175.13
2022-11-29T12:45:43.931Z,159.55
2022-11-29T12:48:48.068Z,181.70
2022-11-29T12:51:36.257Z,158.55
2022-11-29T12:54:19.996Z,161.32
2022-11-29T12:57:12.231Z,163.50
2022-11-29T12:59:57.577Z,174.38
2022-11-29T13:02:34.045Z,146.63
2022-11-29T13:05:19.918Z,157.52
2022-11-29T13:08:12.927Z,147.88
2022-11-29T13:11:04.149Z,152.77
2022-11-29T13:13:36.760Z,143.73
2022-11-29T13:16:09.293Z,160.43
2022-11-29T13:18:50.838Z,142.50
2022-11-29T13:21:25.343Z,160.13
2022-11-29T13:24:11.171Z,124.95
2022-11-29T13:26:39.297Z,150.65
2022-11-29T13:29:06.765Z,151.15
2022-11-29T13:31:33.440Z,145.48
2022-11-29T13:34:23.131Z,143.32
2022-11-29T13:37:10.667Z,153.20
2022-11-29T13:39:59.051Z,172.05
2022-11-29T13:42:32.943Z,135.27
2022-11-29T13:45:20.595Z,140.10
2022-11-29T13:47:52.723Z,131.98
2022-11-29T13:50:57.013Z,113.82
2022-11-29T13:53:25.744Z,130.25
2022-11-29T13:56:01.002Z,142.55
2022-11-29T13:58:37.956Z,140.90
2022-11-29T14:01:07.400Z,129.02
2022-11-29T14:03:43.781Z,133.75
2022-11-29T14:06:35.777Z,146.32
2022-11-29T14:09:31.646Z,155.40
2022-11-29T14:12:16.636Z,147.98
2022-11-29T14:14:57.116Z,144.88
2022-11-29T14:17:34.756Z,163.57
2022-11-29T14:20:22.760Z,146.90
2022-11-29T14:23:04.420Z,185.10
2022-11-29T14:28:18.225Z,150.35
2022-11-29T14:30:44.605Z,128.05
2022-11-29T14:33:32.127Z,125.93
2022-11-29T14:36:15.290Z,152.68
2022-11-29T14:38:52.548Z,131.10
2022-11-29T14:41:43.039Z,134.80
2022-11-29T14:44:19.907Z,117.43
2022-11-29T14:46:47.303Z,136.70
2022-11-29T14:49:24.963Z,124.28
2022-11-29T14:52:39.054Z,109.90
2022-11-29T14:55:07.302Z,127.35
2022-11-29T14:57:52.101Z,165.48
2022-11-29T15:00:47.362Z,397.38
2022-11-29T15:03:18.445Z,173.43
2022-11-29T15:08:29.095Z,112.97
2022-11-29T15:11:22.992Z,116.68
2022-11-29T15:14:17.894Z,114.32
2022-11-29T15:17:13.771Z,127.45
2022-11-29T15:20:04.028Z,124.07
2022-11-29T15:22:44.992Z,120.90
2022-11-29T15:25:17.498Z,118.00
2022-11-29T15:27:51.822Z,126.25
2022-11-29T15:30:36.633Z,148.07
2022-11-29T15:33:08.314Z,143.45
2022-11-29T15:35:36.047Z,131.90
2022-11-29T15:38:02.760Z,132.35
2022-11-29T15:40:38.873Z,143.15
2022-11-29T15:43:26.224Z,146.52
2022-11-29T15:45:55.359Z,153.18
2022-11-29T15:48:30.160Z,131.02
2022-11-29T15:51:50.194Z,132.57
2022-11-29T15:54:22.536Z,131.40
2022-11-29T15:56:52.005Z,141.65
2022-11-29T15:59:40.600Z,154.32
2022-11-29T16:02:20.083Z,143.77
2022-11-29T16:04:48.380Z,141.70
2022-11-29T16:07:15.971Z,129.00
2022-11-29T16:09:45.313Z,137.65
2022-11-29T16:12:14.365Z,153.20
2022-11-29T16:14:52.242Z,153.32
2022-11-29T16:17:20.439Z,119.20
2022-11-29T16:19:47.472Z,165.70
2022-11-29T16:22:22.620Z,133.20
2022-11-29T16:25:06.444Z,128.20
2022-11-29T16:27:34.226Z,125.35
2022-11-29T16:30:01.875Z,136.25
2022-11-29T16:32:29.825Z,129.40
2022-11-29T16:34:58.026Z,131.20
2022-11-29T16:37:26.338Z,129.23
2022-11-29T16:39:57.373Z,127.32
2022-11-29T16:45:01.621Z,110.90
2022-11-29T16:47:46.244Z,126.45
2022-11-29T16:50:14.904Z,142.88
2022-11-29T16:52:41.336Z,127.82
2022-11-29T16:55:07.854Z,137.10
2022-11-29T16:57:34.717Z,110.57
2022-11-29T17:00:01.168Z,121.85
2022-11-29T17:02:29.653Z,129.98
2022-11-29T17:04:56.989Z,142.18
2022-11-29T17:07:30.249Z,133.07
2022-11-29T17:09:57.225Z,145.98
2022-11-29T17:12:23.696Z,138.02
2022-11-29T17:14:50.128Z,151.38
2022-11-29T17:17:18.021Z,151.25
2022-11-29T17:19:44.844Z,158.15
2022-11-29T17:22:12.028Z,175.27
2022-11-29T17:24:43.423Z,180.70
2022-11-29T17:27:13.024Z,180.00
2022-11-29T17:29:39.478Z,173.43
2022-11-29T17:32:05.970Z,181.43
2022-11-29T17:34:33.293Z,182.43
2022-11-29T17:36:59.719Z,200.77
2022-11-29T17:39:26.149Z,184.35
2022-11-29T17:41:52.580Z,150.68
2022-11-29T17:44:18.975Z,177.18
2022-11-29T17:46:45.441Z,179.32
2022-11-29T17:49:11.829Z,179.27
2022-11-29T17:51:55.485Z,195.13
2022-11-29T17:54:22.298Z,175.50
2022-11-29T17:56:49.490Z,155.23
2022-11-29T17:59:16.071Z,200.07
2022-11-29T18:01:44.848Z,189.57
2022-11-29T18:04:11.332Z,169.57
2022-11-29T18:06:39.642Z,173.05
2022-11-29T18:09:07.887Z,172.63
2022-11-29T18:11:48.082Z,180.20
2022-11-29T18:14:17.778Z,185.13
2022-11-29T18:16:47.203Z,161.93
2022-11-29T18:19:16.275Z,192.60
2022-11-29T18:21:43.129Z,193.98
2022-11-29T18:24:09.960Z,196.48
2022-11-29T18:26:37.020Z,208.40
2022-11-29T18:29:04.739Z,186.20
2022-11-29T18:31:35.860Z,217.40
2022-11-29T18:34:07.090Z,198.10
2022-11-29T18:36:44.870Z,256.17
2022-11-29T18:39:16.598Z,203.70
2022-11-29T18:41:45.341Z,216.50
2022-11-29T18:44:13.697Z,222.43
2022-11-29T18:46:42.903Z,156.02
2022-11-29T18:49:12.095Z,172.35
2022-11-29T18:51:38.962Z,152.05
2022-11-29T18:54:06.206Z,132.57
2022-11-29T18:56:34.421Z,134.25
2022-11-29T18:59:05.926Z,144.32
2022-11-29T19:01:34.632Z,162.88
2022-11-29T19:04:01.649Z,147.02
2022-11-29T19:06:37.153Z,146.55
2022-11-29T19:09:07.056Z,158.23
2022-11-29T19:11:34.300Z,172.93
2022-11-29T19:14:03.881Z,160.27
2022-11-29T19:16:31.928Z,147.10
2022-11-29T19:18:59.312Z,153.45
2022-11-29T19:21:27.137Z,150.00
2022-11-29T19:23:55.611Z,166.30
2022-11-29T19:26:23.195Z,186.40
2022-11-29T19:28:49.965Z,168.73
2022-11-29T19:31:18.651Z,189.98
2022-11-29T19:33:46.276Z,165.75
2022-11-29T19:36:23.893Z,177.10
2022-11-29T19:38:53.832Z,165.65
2022-11-29T19:41:22.012Z,165.77
2022-11-29T19:43:49.099Z,181.82
2022-11-29T19:46:20.940Z,186.63
2022-11-29T19:48:47.841Z,185.25
2022-11-29T19:51:19.109Z,189.15
2022-11-29T19:53:46.846Z,179.65
2022-11-29T19:56:15.448Z,173.73
2022-11-29T19:58:42.473Z,201.20
2022-11-29T20:01:11.297Z,201.90
2022-11-29T20:03:38.492Z,187.68
2022-11-29T20:06:05.072Z,235.10
2022-11-29T20:08:31.584Z,198.50
2022-11-29T20:11:25.304Z,218.05
2022-11-29T20:13:59.562Z,203.57
2022-11-29T20:16:27.472Z,212.35
2022-11-29T20:18:54.364Z,198.70
2022-11-29T20:21:23.192Z,208.95
2022-11-29T20:23:49.861Z,213.30
2022-11-29T20:26:19.037Z,207.43
2022-11-29T20:28:46.246Z,214.02
2022-11-29T20:31:18.345Z,177.60
2022-11-29T20:33:46.082Z,201.38
2022-11-29T20:36:12.425Z,189.43
2022-11-29T20:38:47.861Z,178.50
2022-11-29T20:41:23.458Z,197.88
2022-11-29T20:43:58.752Z,216.32
2022-11-29T20:46:25.811Z,198.77
2022-11-29T20:48:53.467Z,198.23
2022-11-29T20:51:23.403Z,206.73
2022-11-29T20:53:49.988Z,211.35
2022-11-29T20:56:16.499Z,185.63
2022-11-29T20:58:42.957Z,196.40
2022-11-29T21:01:09.533Z,194.50
2022-11-29T21:03:36.353Z,195.48
2022-11-29T21:06:04.234Z,191.88
2022-11-29T21:08:30.730Z,212.50
2022-11-29T21:11:05.301Z,201.05
2022-11-29T21:13:32.105Z,194.77
2022-11-29T21:15:59.153Z,207.98
2022-11-29T21:18:27.786Z,199.27
2022-11-29T21:21:10.307Z,188.30
2022-11-29T21:23:56.998Z,181.88
2022-11-29T21:26:29.133Z,196.52
2022-11-29T21:29:16.352Z,228.32
2022-11-29T21:31:43.294Z,178.40
2022-11-29T21:34:10.150Z,189.73
2022-11-29T21:36:37.751Z,207.55
2022-11-29T21:39:05.763Z,189.10
2022-11-29T21:41:32.307Z,196.60
2022-11-29T21:44:06.777Z,205.23
2022-11-29T21:46:36.471Z,174.85
2022-11-29T21:49:03.074Z,194.95
2022-11-29T21:51:29.601Z,179.43
2022-11-29T21:53:56.006Z,201.73
2022-11-29T21:56:22.430Z,185.57
2022-11-29T21:58:48.935Z,207.98
2022-11-29T22:01:17.706Z,187.15
2022-11-29T22:03:44.430Z,205.65
2022-11-29T22:06:13.572Z,226.55
2022-11-29T22:08:41.190Z,199.05
2022-11-29T22:11:10.027Z,186.18
2022-11-29T22:13:57.491Z,196.60
2022-11-29T22:16:23.992Z,203.18
2022-11-29T22:18:50.542Z,191.57
2022-11-29T22:21:17.064Z,208.57
2022-11-29T22:23:43.525Z,218.70
2022-11-29T22:26:09.932Z,204.43
2022-11-29T22:28:36.398Z,199.15
2022-11-29T22:31:08.255Z,203.30
2022-11-29T22:33:35.339Z,199.73
2022-11-29T22:36:12.420Z,212.95
2022-11-29T22:38:39.329Z,188.70
2022-11-29T22:41:08.250Z,188.35
2022-11-29T22:43:35.064Z,203.23
2022-11-29T22:46:08.533Z,200.00
2022-11-29T22:48:38.683Z,194.77
2022-11-29T22:51:10.199Z,193.60
2022-11-29T22:56:05.070Z,184.77
2022-11-29T22:58:31.632Z,176.63
2022-11-29T23:01:09.600Z,218.80
2022-11-29T23:03:38.632Z,191.55
2022-11-29T23:06:10.310Z,247.93
2022-11-29T23:08:37.480Z,243.85
2022-11-29T23:11:05.283Z,218.80
2022-11-29T23:13:33.941Z,210.45
2022-11-29T23:16:01.124Z,247.25
2022-11-29T23:18:27.739Z,204.93
2022-11-29T23:21:23.343Z,197.45
2022-11-29T23:23:55.800Z,229.55
2022-11-29T23:26:36.580Z,221.98
2022-11-29T23:29:03.945Z,217.82
2022-11-29T23:31:30.463Z,263.33
2022-11-29T23:33:56.926Z,230.60
2022-11-29T23:36:23.311Z,274.73
2022-11-29T23:38:49.840Z,260.40
2022-11-29T23:41:16.383Z,186.45
2022-11-29T23:43:42.788Z,209.77
2022-11-29T23:46:13.502Z,187.13
2022-11-29T23:48:40.321Z,175.55
2022-11-29T23:51:06.833Z,183.90
2022-11-29T23:53:33.548Z,176.50
2022-11-29T23:56:05.073Z,172.20
2022-11-29T23:58:32.084Z,141.48
